Time;durP1;ratioP1;P1;durP2;ratioP2;P2;SDS_P1;SDS_P2;PMS_P1;PMS_P2;Temp;Humidity;BMP_temperature;BMP_pressure;BME280_temperature;BME280_humidity;BME280_pressure;Samples;Min_cycle;Max_cycle;Signal;HPM_P1;HPM_P2
2021/03/13 00:01:45;;;;;;;74.18;41.58;;;;;;;4.48;67.10;94586.19;4209193;28;20048;-70
2021/03/13 00:03:47;;;;;;;76.15;44.80;;;;;;;4.48;67.26;94584.41;4231540;28;20075;-71
2021/03/13 00:05:48;;;;;;;79.30;45.03;;;;;;;4.39;67.58;94602.47;4209741;28;20048;-70
2021/03/13 00:07:50;;;;;;;71.40;41.13;;;;;;;4.20;67.98;94598.78;4228408;28;20048;-70
2021/03/13 00:09:51;;;;;;;73.20;41.13;;;;;;;3.98;68.90;94593.63;4226864;28;20512;-70
2021/03/13 00:11:53;;;;;;;65.28;37.65;;;;;;;3.74;69.68;94598.97;4211177;28;20056;-70
2021/03/13 00:13:54;;;;;;;65.43;39.55;;;;;;;3.75;69.94;94603.25;4227724;28;20051;-72
2021/03/13 00:15:55;;;;;;;67.72;40.42;;;;;;;3.84;69.79;94605.09;4229738;28;20055;-70
2021/03/13 00:17:57;;;;;;;61.40;38.75;;;;;;;3.95;69.78;94592.13;4227904;28;20109;-70
2021/03/13 00:19:59;;;;;;;66.90;39.53;;;;;;;4.01;69.37;94583.84;4195090;28;20140;-71
2021/03/13 00:22:00;;;;;;;66.05;39.13;;;;;;;4.10;69.53;94590.06;4224191;28;20403;-71
2021/03/13 00:24:02;;;;;;;64.93;40.33;;;;;;;4.16;68.82;94579.22;4208087;28;20052;-70
2021/03/13 00:26:03;;;;;;;73.10;41.78;;;;;;;4.22;68.78;94577.91;4228523;28;20067;-72
2021/03/13 00:28:05;;;;;;;65.60;38.67;;;;;;;4.28;69.08;94583.44;4230532;28;20055;-82
2021/03/13 00:30:07;;;;;;;58.75;34.78;;;;;;;4.31;69.34;94574.56;4231482;28;20062;-85
2021/03/13 00:32:08;;;;;;;59.38;37.20;;;;;;;4.31;68.77;94577.16;4231922;28;20048;-83
2021/03/13 00:34:09;;;;;;;58.78;36.95;;;;;;;4.30;69.46;94581.53;4240734;28;20040;-83
2021/03/13 00:36:11;;;;;;;61.70;34.60;;;;;;;4.19;69.61;94568.59;4228516;28;20131;-82
2021/03/13 00:38:12;;;;;;;63.00;36.90;;;;;;;4.07;69.80;94575.59;4245780;28;20031;-84
2021/03/13 00:40:15;;;;;;;63.47;37.33;;;;;;;4.02;69.78;94572.56;4219628;28;20086;-82
2021/03/13 00:42:17;;;;;;;58.58;37.33;;;;;;;4.02;70.33;94572.56;4214183;28;20074;-83
2021/03/13 00:44:19;;;;;;;56.65;35.58;;;;;;;4.10;69.83;94569.34;4231731;28;20043;-83
2021/03/13 00:46:20;;;;;;;55.50;35.00;;;;;;;4.16;70.23;94568.03;4215910;28;20499;-84
2021/03/13 00:48:22;;;;;;;55.60;35.40;;;;;;;4.24;69.23;94570.84;4196576;28;20045;-84
2021/03/13 00:50:25;;;;;;;57.67;36.13;;;;;;;4.27;68.53;94571.38;4231135;28;20043;-83
2021/03/13 00:52:27;;;;;;;53.15;34.03;;;;;;;4.08;69.28;94566.03;4232134;28;20061;-84
2021/03/13 00:54:28;;;;;;;51.20;33.38;;;;;;;3.88;69.64;94570.22;4200719;28;20050;-83
2021/03/13 00:56:29;;;;;;;52.25;33.67;;;;;;;3.61;70.62;94571.44;4231533;28;20051;-82
2021/03/13 00:58:30;;;;;;;54.95;34.42;;;;;;;3.67;70.68;94559.78;4230919;28;20079;-82
2021/03/13 01:00:32;;;;;;;51.33;32.90;;;;;;;3.77;70.52;94568.47;4213144;28;20040;-85
2021/03/13 01:02:33;;;;;;;54.53;33.38;;;;;;;3.92;70.30;94553.50;4231819;28;20083;-82
2021/03/13 01:04:34;;;;;;;50.67;32.42;;;;;;;4.04;70.14;94549.94;4214372;28;20126;-83
2021/03/13 01:06:36;;;;;;;53.75;31.48;;;;;;;4.14;69.42;94554.38;4218458;28;20044;-84
2021/03/13 01:08:37;;;;;;;45.78;28.90;;;;;;;4.19;69.05;94545.25;4237073;27;20147;-82
2021/03/13 01:10:39;;;;;;;44.70;28.90;;;;;;;4.25;69.38;94538.75;4212795;28;20060;-83
2021/03/13 01:12:42;;;;;;;47.20;29.55;;;;;;;4.22;69.24;94536.44;4230641;28;20122;-81
2021/03/13 01:14:44;;;;;;;47.58;30.50;;;;;;;3.80;70.58;94542.31;4213375;28;20127;-83
2021/03/13 01:16:45;;;;;;;49.83;30.75;;;;;;;3.69;71.05;94530.22;4231940;28;20043;-83
2021/03/13 01:18:47;;;;;;;44.22;29.15;;;;;;;3.68;71.09;94531.16;4223546;28;20051;-84
2021/03/13 01:20:52;;;;;;;46.33;29.38;;;;;;;3.80;71.09;94534.53;4245584;28;20046;-84
2021/03/13 01:22:54;;;;;;;45.63;29.27;;;;;;;3.83;71.16;94533.47;4231759;28;20048;-84
2021/03/13 01:24:55;;;;;;;45.40;28.98;;;;;;;3.95;70.73;94527.31;4220248;28;20054;-86
2021/03/13 01:26:56;;;;;;;49.70;31.42;;;;;;;4.03;70.65;94535.31;4219419;28;20333;-83
2021/03/13 01:28:57;;;;;;;49.22;29.67;;;;;;;4.15;70.10;94530.06;4230087;28;20473;-84
2021/03/13 01:30:59;;;;;;;48.75;30.13;;;;;;;4.13;69.37;94526.78;4231101;28;20520;-83
2021/03/13 01:33:00;;;;;;;46.05;29.67;;;;;;;4.12;70.04;94541.53;4242876;27;20046;-83
2021/03/13 01:35:03;;;;;;;46.97;29.25;;;;;;;4.17;70.16;94538.56;4217209;27;20059;-83
2021/03/13 01:37:04;;;;;;;44.78;29.17;;;;;;;4.20;69.09;94538.31;4218855;28;20039;-84
2021/03/13 01:39:06;;;;;;;43.72;28.33;;;;;;;3.83;70.15;94531.72;4225148;28;20394;-84
2021/03/13 01:41:07;;;;;;;47.45;29.35;;;;;;;3.69;71.18;94540.56;4231122;28;20046;-83
2021/03/13 01:43:08;;;;;;;45.83;30.00;;;;;;;3.60;71.92;94541.31;4211245;28;20063;-84
2021/03/13 01:45:12;;;;;;;43.00;27.00;;;;;;;3.71;71.41;94529.28;4217019;28;20059;-83
2021/03/13 01:47:20;;;;;;;41.88;27.90;;;;;;;3.82;71.05;94537.03;4216000;28;20060;-82
2021/03/13 01:49:27;;;;;;;40.92;27.35;;;;;;;3.98;70.71;94536.59;4224392;28;20063;-84
2021/03/13 01:51:28;;;;;;;43.35;28.27;;;;;;;4.10;70.36;94533.03;4195366;28;20060;-86
2021/03/13 01:53:30;;;;;;;39.92;26.88;;;;;;;4.19;70.31;94526.28;4214046;28;20067;-85
2021/03/13 01:55:31;;;;;;;44.58;28.70;;;;;;;4.25;69.27;94529.19;4235876;28;20039;-83
2021/03/13 01:57:32;;;;;;;45.83;26.73;;;;;;;4.33;69.20;94526.00;4214557;28;20048;-86
2021/03/13 01:59:34;;;;;;;40.90;26.80;;;;;;;4.37;68.99;94524.81;4202861;28;20060;-83
2021/03/13 02:01:35;;;;;;;39.90;25.70;;;;;;;4.40;69.01;94513.34;4231110;28;20062;-85
2021/03/13 02:03:42;;;;;;;36.90;26.42;;;;;;;4.41;69.33;94515.81;4230046;28;20097;-84
2021/03/13 02:05:49;;;;;;;40.22;24.90;;;;;;;4.46;69.00;94513.66;4195860;28;20040;-84
2021/03/13 02:08:16;;;;;;;40.50;25.80;;;;;;;4.52;69.03;94507.16;4210603;28;20052;-83
2021/03/13 02:10:40;;;;;;;39.35;25.48;;;;;;;4.54;68.91;94507.84;4228786;28;20039;-85
2021/03/13 02:13:04;;;;;;;39.42;24.85;;;;;;;4.58;68.40;94503.22;4219540;28;20048;-82
2021/03/13 02:15:13;;;;;;;40.53;26.20;;;;;;;4.57;69.02;94505.00;4226339;28;20494;-83
2021/03/13 02:17:23;;;;;;;40.17;25.75;;;;;;;4.58;68.75;94504.06;4212028;28;20551;-84
2021/03/13 02:19:55;;;;;;;41.45;26.63;;;;;;;4.57;68.78;94506.78;4195326;28;20092;-83
2021/03/13 02:22:06;;;;;;;38.67;26.20;;;;;;;4.59;69.60;94518.66;4234103;28;20097;-82
2021/03/13 02:24:33;;;;;;;39.45;27.75;;;;;;;4.62;69.13;94507.19;4229443;28;20725;-83
2021/03/13 02:26:55;;;;;;;39.70;26.33;;;;;;;4.61;69.31;94500.38;4231075;28;20058;-84
2021/03/13 02:29:14;;;;;;;43.03;26.65;;;;;;;4.59;69.79;94502.28;4216726;28;20044;-84
2021/03/13 02:31:52;;;;;;;40.58;26.20;;;;;;;4.61;69.90;94493.41;4232207;28;20078;-84
2021/03/13 02:33:58;;;;;;;36.88;23.88;;;;;;;4.59;70.04;94487.53;4211135;28;20071;-84
2021/03/13 02:36:02;;;;;;;36.25;24.38;;;;;;;4.60;69.51;94483.16;4201306;28;20048;-82
2021/03/13 02:38:05;;;;;;;;;;;;;;;4.63;69.40;94491.50;4214050;28;20048;-84
2021/03/13 02:40:08;;;;;;;34.45;21.98;;;;;;;4.63;69.51;94488.91;4228265;28;19920;-83
2021/03/13 02:42:10;;;;;;;37.30;22.80;;;;;;;4.62;69.62;94481.25;4204729;28;20084;-83
2021/03/13 02:44:14;;;;;;;35.42;21.70;;;;;;;4.63;69.19;94483.72;4214854;28;20103;-71
2021/03/13 02:46:19;;;;;;;33.05;21.50;;;;;;;4.62;69.40;94489.84;4210836;28;20044;-83
2021/03/13 02:48:21;;;;;;;31.73;22.27;;;;;;;4.62;69.37;94491.63;4213102;28;20105;-84
2021/03/13 02:50:23;;;;;;;34.83;22.35;;;;;;;4.61;69.47;94482.22;4204398;28;20553;-84
2021/03/13 02:52:25;;;;;;;34.58;22.70;;;;;;;4.59;69.41;94476.34;4223445;28;20658;-84
2021/03/13 02:54:27;;;;;;;33.20;23.35;;;;;;;4.58;69.46;94472.06;4211212;28;20044;-83
2021/03/13 02:56:29;;;;;;;36.28;23.67;;;;;;;4.60;69.54;94477.97;4229059;28;20240;-83
2021/03/13 02:58:32;;;;;;;37.22;25.52;;;;;;;4.61;69.38;94466.66;4230593;28;20097;-84
2021/03/13 03:00:36;;;;;;;39.42;26.52;;;;;;;4.62;69.19;94476.06;4207462;28;20044;-84
2021/03/13 03:02:38;;;;;;;36.58;24.40;;;;;;;4.66;69.38;94480.06;4212151;28;20086;-83
2021/03/13 03:04:40;;;;;;;39.15;25.88;;;;;;;4.63;69.01;94482.91;4211859;28;20503;-85
2021/03/13 03:06:44;;;;;;;44.50;27.73;;;;;;;4.54;68.68;94476.72;4215000;28;20501;-86
2021/03/13 03:08:45;;;;;;;;;;;;;;;4.45;69.05;94475.72;4211613;28;20055;-83
2021/03/13 03:10:47;;;;;;;44.70;26.52;;;;;;;4.38;69.20;94471.97;4220154;28;19931;-83
2021/03/13 03:12:49;;;;;;;40.33;27.15;;;;;;;4.42;69.57;94475.94;4232512;28;20055;-83
2021/03/13 03:14:51;;;;;;;43.65;26.52;;;;;;;4.28;70.13;94473.66;4196795;28;20439;-84
2021/03/13 03:16:56;;;;;;;42.85;28.63;;;;;;;4.21;70.21;94475.94;4232420;28;20479;-84
2021/03/13 03:18:58;;;;;;;42.22;27.65;;;;;;;4.27;70.03;94479.81;4215263;28;20048;-84
2021/03/13 03:21:01;;;;;;;45.80;28.58;;;;;;;4.36;69.95;94481.66;4233214;28;20051;-84
2021/03/13 03:23:03;;;;;;;43.05;29.40;;;;;;;4.43;69.47;94476.78;4231639;28;20058;-85
2021/03/13 03:25:06;;;;;;;50.83;30.85;;;;;;;4.41;69.26;94473.47;4227135;28;20048;-84
2021/03/13 03:27:07;;;;;;;46.50;31.73;;;;;;;4.37;70.18;94479.91;4221037;28;20055;-84
2021/03/13 03:29:09;;;;;;;50.45;29.35;;;;;;;4.38;70.07;94471.97;4231334;27;20499;-83
2021/03/13 03:31:12;;;;;;;49.22;30.55;;;;;;;4.44;69.81;94473.25;4198171;28;20522;-83
2021/03/13 03:33:14;;;;;;;44.28;30.42;;;;;;;4.49;69.23;94477.06;4230465;28;20048;-84
2021/03/13 03:35:16;;;;;;;47.88;28.45;;;;;;;4.54;69.65;94475.88;4232651;28;20104;-84
2021/03/13 03:37:18;;;;;;;48.15;30.50;;;;;;;4.55;69.04;94480.94;4208378;28;20095;-84
2021/03/13 03:39:19;;;;;;;49.42;30.38;;;;;;;4.62;69.19;94482.06;4224234;28;20048;-84
2021/03/13 03:41:21;;;;;;;47.22;30.23;;;;;;;4.68;69.12;94485.94;4227054;27;20040;-85
2021/03/13 03:43:31;;;;;;;46.42;29.35;;;;;;;4.70;69.26;94487.44;4207072;28;20085;-84
2021/03/13 03:45:33;;;;;;;48.60;31.75;;;;;;;4.73;69.32;94494.16;4190326;28;20071;-83
2021/03/13 03:47:35;;;;;;;42.20;28.67;;;;;;;4.73;68.70;94499.34;4221104;28;20055;-84
2021/03/13 03:49:39;;;;;;;53.25;33.50;;;;;;;4.35;70.22;94495.56;4215337;28;20055;-83
2021/03/13 03:51:40;;;;;;;59.35;37.17;;;;;;;3.41;74.01;94497.91;4217064;28;20048;-84
2021/03/13 03:53:45;;;;;;;57.85;37.25;;;;;;;3.40;74.22;94501.44;4219303;28;20056;-83
2021/03/13 03:55:49;;;;;;;59.08;36.05;;;;;;;3.52;73.96;94493.66;4237695;27;20138;-84
2021/03/13 03:57:51;;;;;;;52.90;34.97;;;;;;;3.72;73.29;94494.66;4215411;28;20055;-83
2021/03/13 03:59:52;;;;;;;57.92;36.20;;;;;;;3.92;72.12;94490.47;4232995;28;20663;-83
2021/03/13 04:01:54;;;;;;;54.03;34.92;;;;;;;4.06;72.00;94484.97;4210712;28;20475;-85
2021/03/13 04:03:57;;;;;;;50.83;32.85;;;;;;;4.21;71.51;94488.91;4220569;28;20539;-84
2021/03/13 04:05:59;;;;;;;55.53;34.80;;;;;;;4.27;71.08;94487.59;4217733;28;20051;-83
2021/03/13 04:08:00;;;;;;;49.50;33.03;;;;;;;4.33;70.98;94487.09;4223245;28;20051;-84
2021/03/13 04:10:06;;;;;;;60.83;33.47;;;;;;;4.43;70.80;94495.78;4235308;28;20056;-82
2021/03/13 04:12:08;;;;;;;50.85;31.92;;;;;;;4.45;70.86;94496.47;4215774;28;20043;-82
2021/03/13 04:14:09;;;;;;;56.25;31.50;;;;;;;4.49;70.49;94502.19;4231355;28;20063;-83
2021/03/13 04:16:11;;;;;;;45.63;30.73;;;;;;;4.55;70.29;94508.66;4214125;28;20097;-83
2021/03/13 04:18:13;;;;;;;48.15;31.73;;;;;;;4.41;70.89;94502.00;4218320;28;20126;-83
2021/03/13 04:20:15;;;;;;;48.53;31.58;;;;;;;4.30;71.37;94502.88;4237412;27;20073;-84
2021/03/13 04:22:17;;;;;;;50.03;32.75;;;;;;;4.26;71.16;94497.16;4217574;28;20051;-83
2021/03/13 04:24:18;;;;;;;52.50;32.10;;;;;;;4.31;71.28;94500.19;4218861;28;20056;-84
2021/03/13 04:26:21;;;;;;;51.88;32.15;;;;;;;4.33;70.99;94487.09;4231877;28;20124;-82
2021/03/13 04:28:23;;;;;;;48.88;31.50;;;;;;;4.39;71.05;94478.81;4232826;27;20553;-85
2021/03/13 04:30:25;;;;;;;49.90;33.08;;;;;;;4.47;71.13;94486.78;4215049;28;20067;-84
2021/03/13 04:32:48;;;;;;;51.65;31.95;;;;;;;4.53;70.88;94492.41;4217404;28;20047;-83
2021/03/13 04:34:51;;;;;;;44.95;29.52;;;;;;;4.58;70.31;94498.03;4217326;28;20085;-84
2021/03/13 04:36:53;;;;;;;44.33;28.42;;;;;;;4.58;70.07;94504.06;4215022;28;20054;-83
2021/03/13 04:38:56;;;;;;;43.83;29.38;;;;;;;4.57;69.95;94493.81;4209445;28;20758;-70
2021/03/13 04:40:58;;;;;;;38.50;27.95;;;;;;;4.59;69.86;94482.34;4213654;28;20050;-85
2021/03/13 04:42:59;;;;;;;42.72;27.95;;;;;;;4.58;69.87;94487.66;4211482;28;20062;-70
2021/03/13 04:45:01;;;;;;;42.10;27.25;;;;;;;4.61;69.73;94483.03;4209685;28;20129;-70
2021/03/13 04:47:04;;;;;;;45.90;29.17;;;;;;;4.64;69.71;94487.97;4210193;28;20060;-71
2021/03/13 04:49:06;;;;;;;47.15;31.40;;;;;;;4.58;69.55;94496.28;4216671;27;20048;-71
2021/03/13 04:51:08;;;;;;;49.72;30.23;;;;;;;4.62;69.92;94491.63;4216816;28;20058;-69
2021/03/13 04:53:09;;;;;;;43.80;30.30;;;;;;;4.61;70.08;94496.00;4226115;28;20533;-72
2021/03/13 04:55:11;;;;;;;45.65;29.38;;;;;;;4.64;69.48;94487.97;4197392;28;20052;-70
2021/03/13 04:57:13;;;;;;;44.47;30.67;;;;;;;4.64;69.86;94489.72;4223877;28;20372;-69
2021/03/13 04:59:14;;;;;;;44.15;30.83;;;;;;;4.60;70.12;94483.97;4216076;27;20052;-71
2021/03/13 05:01:15;;;;;;;51.10;31.75;;;;;;;4.57;69.81;94483.44;4216065;28;20047;-71
2021/03/13 05:03:17;;;;;;;50.28;31.33;;;;;;;4.51;70.56;94484.75;4236498;27;20459;-70
2021/03/13 05:05:18;;;;;;;48.25;31.83;;;;;;;4.50;69.80;94483.94;4214312;28;20082;-72
2021/03/13 05:07:19;;;;;;;46.08;31.08;;;;;;;4.46;69.92;94487.72;4228506;28;20495;-71
2021/03/13 05:09:21;;;;;;;52.30;33.13;;;;;;;4.38;70.68;94491.91;4207190;28;20469;-71
2021/03/13 05:11:22;;;;;;;49.42;31.23;;;;;;;4.40;71.16;94488.22;4209188;28;20037;-71
2021/03/13 05:13:23;;;;;;;49.05;32.88;;;;;;;4.44;70.49;94497.41;4220613;28;20048;-71
2021/03/13 05:15:24;;;;;;;49.53;30.73;;;;;;;4.19;70.76;94496.00;4203125;28;20048;-70
2021/03/13 05:17:26;;;;;;;50.65;32.25;;;;;;;3.96;72.04;94503.06;4225012;28;20051;-71
2021/03/13 05:19:27;;;;;;;53.45;33.35;;;;;;;3.98;71.78;94510.69;4207489;28;20177;-69
2021/03/13 05:21:28;;;;;;;46.38;32.03;;;;;;;4.06;71.37;94510.91;4211501;28;20043;-70
2021/03/13 05:23:29;;;;;;;52.65;33.03;;;;;;;4.15;70.85;94505.00;4225290;28;20044;-70
2021/03/13 05:25:31;;;;;;;60.00;35.40;;;;;;;4.18;70.73;94504.72;4234089;27;20131;-70
2021/03/13 05:27:32;;;;;;;54.70;36.00;;;;;;;4.24;71.04;94508.59;4227298;28;20105;-69
2021/03/13 05:29:33;;;;;;;55.38;34.65;;;;;;;4.25;71.01;94511.06;4222953;28;20052;-70
2021/03/13 05:31:35;;;;;;;55.42;36.95;;;;;;;4.35;70.68;94516.31;4228453;28;20043;-70
2021/03/13 05:33:36;;;;;;;80.78;50.05;;;;;;;3.98;71.85;94527.09;4233375;27;20050;-71
2021/03/13 05:35:39;;;;;;;93.07;57.85;;;;;;;3.73;73.06;94527.41;4235539;27;20062;-70
2021/03/13 05:37:41;;;;;;;98.28;60.67;;;;;;;3.19;74.99;94527.22;4227061;28;20051;-71
2021/03/13 05:39:42;;;;;;;104.13;62.88;;;;;;;3.00;76.10;94539.94;4208899;28;20047;-70
2021/03/13 05:41:44;;;;;;;107.03;63.85;;;;;;;2.71;77.78;94531.78;4218919;28;20047;-70
2021/03/13 05:43:45;;;;;;;107.57;61.38;;;;;;;2.85;76.93;94537.56;4216962;28;20500;-71
2021/03/13 05:45:47;;;;;;;99.70;58.30;;;;;;;3.04;76.33;94528.41;4221831;28;20046;-70
2021/03/13 05:47:48;;;;;;;97.45;58.70;;;;;;;3.18;75.74;94535.09;4204232;28;20151;-71
2021/03/13 05:50:10;;;;;;;94.60;58.17;;;;;;;3.32;75.24;94534.88;4226048;28;20310;-70
2021/03/13 05:52:12;;;;;;;97.78;58.05;;;;;;;3.54;74.81;94530.63;4208671;28;20052;-71
2021/03/13 05:54:15;;;;;;;93.35;56.70;;;;;;;3.75;73.76;94530.69;4239288;27;20052;-69
2021/03/13 05:56:16;;;;;;;88.65;57.30;;;;;;;3.91;73.20;94531.09;4208303;28;20047;-71
2021/03/13 05:58:17;;;;;;;92.35;57.10;;;;;;;4.07;72.55;94533.31;4227622;28;20067;-71
2021/03/13 06:00:19;;;;;;;98.00;60.00;;;;;;;4.16;72.09;94529.13;4238540;28;20050;-71
2021/03/13 06:02:21;;;;;;;92.35;59.22;;;;;;;4.14;72.24;94524.06;4214361;28;20539;-70
2021/03/13 06:04:22;;;;;;;97.93;59.20;;;;;;;4.17;72.21;94526.41;4226209;28;20047;-70
2021/03/13 06:06:25;;;;;;;87.90;58.10;;;;;;;4.25;71.98;94526.59;4243775;28;20047;-72
2021/03/13 06:08:27;;;;;;;95.73;57.70;;;;;;;4.36;71.16;94532.69;4216826;28;20070;-71
2021/03/13 06:10:28;;;;;;;92.80;56.97;;;;;;;4.31;71.26;94535.66;4219311;28;20051;-70
2021/03/13 06:12:29;;;;;;;99.18;58.83;;;;;;;4.09;72.12;94532.22;4219854;28;20359;-69
2021/03/13 06:14:30;;;;;;;97.53;57.58;;;;;;;4.18;71.93;94529.84;4220336;28;20479;-70
2021/03/13 06:16:32;;;;;;;93.47;56.92;;;;;;;4.28;71.39;94539.34;4226895;28;20433;-69
2021/03/13 06:19:03;;;;;;;94.03;57.00;;;;;;;4.55;70.70;94548.41;4227637;28;20047;-70
2021/03/13 06:21:36;;;;;;;93.65;56.78;;;;;;;4.68;69.84;94554.22;4176970;28;20110;-72
2021/03/13 06:23:37;;;;;;;90.28;55.92;;;;;;;4.79;70.02;94555.91;4206704;28;20054;-72
2021/03/13 06:25:40;;;;;;;86.35;55.90;;;;;;;4.92;70.03;94553.94;4209414;28;20535;-73
2021/03/13 06:27:42;;;;;;;85.75;53.47;;;;;;;5.01;69.51;94559.31;4227303;28;20044;-70
2021/03/13 06:29:44;;;;;;;95.32;53.60;;;;;;;5.10;68.94;94563.78;4197173;28;20056;-71
2021/03/13 06:32:03;;;;;;;129.63;71.07;;;;;;;5.24;70.37;94554.78;4220914;28;20056;-71
2021/03/13 06:34:26;;;;;;;106.35;64.30;;;;;;;5.38;69.25;94561.41;4210469;28;20044;-71
2021/03/13 06:36:27;;;;;;;119.32;68.80;;;;;;;5.48;69.21;94563.09;4224406;28;20055;-71
2021/03/13 06:38:30;;;;;;;90.97;57.10;;;;;;;5.56;68.66;94569.41;4211833;28;20513;-71
2021/03/13 06:40:32;;;;;;;92.13;54.25;;;;;;;5.63;67.20;94566.16;4227731;27;20107;-71
2021/03/13 06:42:34;;;;;;;81.55;54.10;;;;;;;5.64;67.37;94578.19;4221126;27;20055;-71
2021/03/13 06:44:35;;;;;;;84.32;53.45;;;;;;;5.71;67.41;94568.91;4223030;28;20251;-70
2021/03/13 06:46:36;;;;;;;85.47;53.65;;;;;;;5.77;67.47;94569.34;4229649;28;20043;-70
2021/03/13 06:48:44;;;;;;;80.40;53.30;;;;;;;5.84;67.45;94573.88;4230091;28;20126;-70
2021/03/13 06:50:45;;;;;;;81.80;52.28;;;;;;;5.83;66.86;94579.19;4197870;28;20058;-72
2021/03/13 06:52:47;;;;;;;86.32;53.15;;;;;;;5.71;66.72;94578.50;4229283;28;20047;-70
2021/03/13 06:54:48;;;;;;;81.57;54.50;;;;;;;5.77;67.66;94582.34;4228774;28;20043;-71
2021/03/13 06:56:52;;;;;;;90.88;53.03;;;;;;;5.89;66.62;94578.66;4210771;28;20044;-70
2021/03/13 06:58:54;;;;;;;81.30;53.65;;;;;;;6.07;67.00;94578.88;4229941;28;20083;-71
2021/03/13 07:01:03;;;;;;;84.10;51.60;;;;;;;6.24;66.25;94579.97;4215601;28;20050;-71
2021/03/13 07:03:11;;;;;;;82.32;51.08;;;;;;;6.42;65.12;94587.97;4211310;28;20948;-70
2021/03/13 07:05:14;;;;;;;79.28;50.13;;;;;;;6.60;64.20;94575.88;4211621;28;20044;-72
2021/03/13 07:07:29;;;;;;;82.30;52.20;;;;;;;6.64;64.18;94574.66;4229475;28;20098;-72
2021/03/13 07:09:52;;;;;;;81.85;50.78;;;;;;;6.71;64.38;94582.72;4214555;28;20487;-72
2021/03/13 07:11:56;;;;;;;73.32;48.97;;;;;;;6.65;63.57;94589.31;4229139;28;20050;-71
2021/03/13 07:13:57;;;;;;;70.65;47.70;;;;;;;6.66;63.60;94585.75;4212245;28;20523;-72
2021/03/13 07:16:23;;;;;;;69.88;46.30;;;;;;;6.66;63.49;94590.16;4211844;28;20538;-70
2021/03/13 07:18:24;;;;;;;74.25;45.75;;;;;;;6.67;63.22;94590.00;4220433;28;20616;-71
2021/03/13 07:20:28;;;;;;;65.88;44.90;;;;;;;6.78;62.86;94599.47;4211744;28;20059;-72
2021/03/13 07:22:29;;;;;;;67.13;44.17;;;;;;;6.83;62.64;94586.84;4211790;28;20056;-70
2021/03/13 07:24:30;;;;;;;51.35;36.20;;;;;;;6.82;62.37;94580.00;4223027;28;20048;-71
2021/03/13 07:26:35;;;;;;;43.92;28.77;;;;;;;7.01;60.88;94586.13;4215798;28;20470;-72
2021/03/13 07:28:40;;;;;;;49.15;28.92;;;;;;;6.84;59.62;94580.69;4229035;28;20055;-72
2021/03/13 07:30:42;;;;;;;47.00;29.55;;;;;;;6.84;60.62;94575.47;4201882;28;20056;-72
2021/03/13 07:33:05;;;;;;;40.97;28.80;;;;;;;7.07;59.96;94577.75;4209831;28;20048;-71
2021/03/13 07:35:14;;;;;;;42.85;29.90;;;;;;;7.18;59.16;94581.03;4216017;28;20150;-70
2021/03/13 07:37:17;;;;;;;41.50;30.08;;;;;;;7.03;59.16;94586.81;4211879;28;20059;-71
2021/03/13 07:39:21;;;;;;;49.10;31.05;;;;;;;7.06;60.09;94582.16;4210047;28;20052;-74
2021/03/13 07:41:23;;;;;;;47.40;30.50;;;;;;;7.12;59.79;94585.97;4211219;28;20048;-72
2021/03/13 07:43:25;;;;;;;48.30;33.58;;;;;;;7.11;59.60;94579.13;4214309;28;20048;-71
2021/03/13 07:45:26;;;;;;;45.40;31.75;;;;;;;6.96;60.59;94589.16;4211820;28;20048;-74
2021/03/13 07:47:28;;;;;;;45.25;30.52;;;;;;;6.72;60.17;94581.78;4194150;28;20110;-72
2021/03/13 07:49:32;;;;;;;47.28;30.25;;;;;;;6.71;60.35;94582.72;4210297;28;20125;-72
2021/03/13 07:51:34;;;;;;;43.28;29.05;;;;;;;6.81;60.08;94580.13;4210838;28;20066;-72
2021/03/13 07:53:39;;;;;;;44.03;30.65;;;;;;;7.00;60.04;94587.91;4209846;28;20076;-72
2021/03/13 07:55:41;;;;;;;39.90;28.02;;;;;;;6.93;60.13;94587.66;4209973;28;20465;-70
2021/03/13 07:57:45;;;;;;;45.75;30.10;;;;;;;7.03;60.08;94577.19;4209996;28;20054;-74
2021/03/13 07:59:51;;;;;;;47.38;31.85;;;;;;;7.04;60.15;94583.25;4212738;28;20054;-70
2021/03/13 08:01:53;;;;;;;51.03;31.83;;;;;;;7.18;59.88;94578.44;4211649;28;20419;-71
2021/03/13 08:03:54;;;;;;;43.22;30.23;;;;;;;7.46;59.19;94582.84;4212300;28;20048;-73
2021/03/13 08:06:10;;;;;;;44.30;29.70;;;;;;;7.66;58.50;94587.03;4226132;28;20055;-71
2021/03/13 08:08:13;;;;;;;39.95;28.75;;;;;;;7.65;57.09;94588.00;4218826;28;20048;-86
2021/03/13 08:10:40;;;;;;;41.72;26.98;;;;;;;7.74;56.79;94588.91;4219856;28;20048;-87
2021/03/13 08:12:42;;;;;;;80.85;34.58;;;;;;;7.78;57.34;94585.06;4222040;28;20448;-83
2021/03/13 08:14:43;;;;;;;48.35;31.23;;;;;;;7.86;56.81;94590.38;4236835;28;20044;-85
2021/03/13 08:16:45;;;;;;;51.92;32.42;;;;;;;7.75;57.08;94591.38;4209156;28;20142;-85
2021/03/13 08:18:47;;;;;;;52.03;31.85;;;;;;;7.80;56.32;94588.34;4237192;27;20100;-86
2021/03/13 08:20:51;;;;;;;43.00;29.27;;;;;;;7.90;55.92;94598.72;4205840;28;20062;-85
2021/03/13 08:23:11;;;;;;;46.53;31.05;;;;;;;8.29;55.29;94601.13;4235943;28;20457;-86
2021/03/13 08:25:27;;;;;;;36.88;25.23;;;;;;;8.52;54.72;94593.72;4232761;28;20051;-85
2021/03/13 08:27:34;;;;;;;35.88;27.48;;;;;;;8.70;54.00;94589.28;4233772;28;20512;-86
2021/03/13 08:29:46;;;;;;;40.10;27.00;;;;;;;8.81;54.06;94596.06;4221865;28;20048;-84
2021/03/13 08:31:47;;;;;;;47.72;29.63;;;;;;;8.96;54.06;94585.91;4234566;28;20067;-85
2021/03/13 08:33:53;;;;;;;50.67;34.15;;;;;;;8.88;53.94;94591.06;4251264;27;20078;-86
2021/03/13 08:35:55;;;;;;;53.92;34.20;;;;;;;8.71;53.89;94587.50;4240317;27;20248;-86
2021/03/13 08:37:56;;;;;;;44.25;33.25;;;;;;;8.12;55.57;94600.13;4229031;27;20090;-71
2021/03/13 08:40:21;;;;;;;55.22;36.17;;;;;;;8.06;56.38;94596.28;4226748;28;20104;-74
2021/03/13 08:42:29;;;;;;;;;;;;;;;8.21;55.34;94599.22;4229067;28;20046;-71
2021/03/13 08:44:37;;;;;;;50.75;35.22;;;;;;;8.31;54.91;94600.00;4227442;28;19946;-71
2021/03/13 08:46:47;;;;;;;51.10;33.53;;;;;;;8.19;55.28;94601.16;4210829;28;20048;-73
2021/03/13 08:49:01;;;;;;;55.55;32.75;;;;;;;8.36;55.31;94602.97;4208877;28;20052;-73
2021/03/13 08:51:15;;;;;;;60.42;34.78;;;;;;;8.38;55.32;94601.03;4227462;28;20058;-73
2021/03/13 08:53:28;;;;;;;;;;;;;;;8.54;54.37;94603.03;4210887;28;20486;-72
2021/03/13 08:55:32;;;;;;;48.65;30.33;;;;;;;8.29;54.70;94601.94;4227162;28;20343;-73
2021/03/13 08:57:34;;;;;;;48.40;31.63;;;;;;;8.19;55.27;94612.44;4227355;28;20065;-73
2021/03/13 08:59:37;;;;;;;57.28;32.70;;;;;;;8.18;57.15;94605.56;4226683;28;20052;-71
2021/03/13 09:01:38;;;;;;;40.13;30.45;;;;;;;8.31;55.38;94612.22;4218631;28;20559;-73
2021/03/13 09:03:48;;;;;;;46.75;31.75;;;;;;;8.41;54.57;94618.25;4209307;28;20060;-72
2021/03/13 09:05:49;;;;;;;45.40;32.30;;;;;;;8.51;54.66;94613.75;4226572;28;20052;-72
2021/03/13 09:07:53;;;;;;;50.35;33.88;;;;;;;8.63;54.44;94613.56;4210722;28;20044;-72
2021/03/13 09:09:56;;;;;;;45.55;31.08;;;;;;;8.60;54.80;94615.50;4225727;28;20055;-72
2021/03/13 09:12:03;;;;;;;52.28;35.30;;;;;;;8.65;56.29;94616.81;4228148;28;20044;-72
2021/03/13 09:14:04;;;;;;;52.22;34.22;;;;;;;8.54;55.26;94605.66;4214509;28;20467;-72
2021/03/13 09:16:18;;;;;;;50.60;33.90;;;;;;;8.48;55.16;94611.47;4240901;27;20096;-72
2021/03/13 09:18:20;;;;;;;49.13;34.38;;;;;;;8.59;56.11;94616.47;4227006;28;20074;-73
2021/03/13 09:20:21;;;;;;;48.67;33.13;;;;;;;8.78;55.73;94606.84;4237505;27;20074;-71
2021/03/13 09:22:24;;;;;;;60.10;33.33;;;;;;;8.96;54.50;94618.06;4252779;27;20047;-86
2021/03/13 09:24:29;;;;;;;50.50;34.17;;;;;;;9.11;54.72;94622.78;4251424;27;20047;-86
2021/03/13 09:26:30;;;;;;;43.45;32.33;;;;;;;9.25;54.95;94622.22;4208178;28;20049;-84
2021/03/13 09:28:31;;;;;;;46.92;33.22;;;;;;;9.33;54.95;94624.06;4226703;28;20093;-85
2021/03/13 09:30:34;;;;;;;53.50;34.03;;;;;;;9.21;54.90;94628.72;4235637;28;20051;-85
2021/03/13 09:32:47;;;;;;;51.63;37.78;;;;;;;9.13;54.92;94628.66;4233680;28;20093;-85
2021/03/13 09:34:51;;;;;;;52.10;36.97;;;;;;;9.10;55.09;94631.56;4217191;28;20049;-84
2021/03/13 09:36:53;;;;;;;59.53;41.47;;;;;;;8.59;56.29;94634.72;4223351;28;20537;-86
2021/03/13 09:38:55;;;;;;;49.40;36.28;;;;;;;8.37;58.23;94629.91;4242068;27;20048;-87
2021/03/13 09:40:56;;;;;;;52.72;34.30;;;;;;;8.19;57.60;94643.75;4223132;28;20052;-86